Time;durP1;ratioP1;P1;durP2;ratioP2;P2;SDS_P1;SDS_P2;PMS_P1;PMS_P2;Temp;Humidity;BMP_temperature;BMP_pressure;BME280_temperature;BME280_humidity;BME280_pressure;Samples;Min_cycle;Max_cycle;Signal;HPM_P1;HPM_P2
2021/01/20 07:22:27;;;;;;;2.30;1.13;;;7.70;99.90;;;;;;3908820;22;20240;-71
2021/01/20 07:24:54;;;;;;;1.10;0.70;;;7.70;99.90;;;;;;5055533;28;20207;-71
2021/01/20 07:27:20;;;;;;;1.00;0.67;;;7.60;99.90;;;;;;5055844;28;20211;-70
2021/01/20 07:29:47;;;;;;;1.00;0.60;;;7.70;99.90;;;;;;5055790;28;20224;-71
2021/01/20 07:32:13;;;;;;;1.63;0.70;;;7.70;99.90;;;;;;5055581;28;20215;-70
2021/01/20 07:34:42;;;;;;;1.40;0.60;;;7.70;99.90;;;;;;5055844;28;20204;-72
2021/01/20 07:37:08;;;;;;;1.17;0.60;;;7.70;99.90;;;;;;5056018;28;20226;-70
2021/01/20 07:39:35;;;;;;;1.93;0.60;;;7.70;99.90;;;;;;5055423;28;20240;-70
2021/01/20 07:42:03;;;;;;;1.40;0.60;;;7.60;99.90;;;;;;5055479;28;20208;-71
2021/01/20 07:44:29;;;;;;;1.87;1.17;;;7.60;99.90;;;;;;5051723;28;20236;-71
2021/01/20 07:46:59;;;;;;;1.23;0.67;;;7.60;99.90;;;;;;5054875;28;20724;-73
2021/01/20 07:49:25;;;;;;;1.33;0.63;;;7.60;99.90;;;;;;5054837;28;20235;-72
2021/01/20 07:52:01;;;;;;;1.90;0.70;;;7.70;99.90;;;;;;5054566;28;20208;-72
2021/01/20 07:54:36;;;;;;;2.73;0.93;;;7.60;99.90;;;;;;5054568;28;20203;-72
2021/01/20 07:57:02;;;;;;;1.43;0.90;;;7.60;99.90;;;;;;5053694;28;20298;-72
2021/01/20 07:59:28;;;;;;;1.60;0.90;;;7.60;99.90;;;;;;5054050;28;20767;-72
2021/01/20 08:02:05;;;;;;;1.13;0.50;;;7.60;99.90;;;;;;5054703;28;20560;-72
2021/01/20 08:04:32;;;;;;;1.30;0.60;;;7.60;99.90;;;;;;5054489;28;20719;-73
2021/01/20 08:06:58;;;;;;;1.30;0.70;;;7.60;99.90;;;;;;5054333;28;20235;-73
2021/01/20 08:09:35;;;;;;;1.30;0.70;;;7.70;99.90;;;;;;5044949;28;20232;-72
2021/01/20 08:12:04;;;;;;;0.90;0.70;;;7.80;99.90;;;;;;5046899;28;20204;-70
2021/01/20 08:14:30;;;;;;;5.03;0.80;;;7.80;99.90;;;;;;5049384;28;20255;-71
2021/01/20 08:16:57;;;;;;;1.03;0.70;;;7.90;99.90;;;;;;5052778;28;20215;-75
2021/01/20 08:19:24;;;;;;;1.40;0.80;;;8.00;99.90;;;;;;5052939;28;20242;-79
2021/01/20 08:21:50;;;;;;;2.07;0.87;;;8.10;99.90;;;;;;5053343;28;20204;-80
2021/01/20 08:24:21;;;;;;;1.73;0.70;;;8.20;99.90;;;;;;5054104;28;20219;-77
2021/01/20 08:26:54;;;;;;;1.13;0.60;;;8.20;99.90;;;;;;5054367;28;20204;-76
2021/01/20 08:29:21;;;;;;;0.80;0.50;;;8.30;99.90;;;;;;5053979;28;20578;-76
2021/01/20 08:32:05;;;;;;;1.40;0.67;;;8.30;99.90;;;;;;5054625;28;20204;-76
2021/01/20 08:34:35;;;;;;;0.97;0.60;;;8.30;99.90;;;;;;5054134;28;20265;-76
2021/01/20 08:37:04;;;;;;;1.07;0.67;;;8.20;99.90;;;;;;5054682;28;20204;-76
2021/01/20 08:39:31;;;;;;;1.07;0.50;;;8.20;99.90;;;;;;5054632;28;20235;-76
2021/01/20 08:42:21;;;;;;;2.03;1.00;;;8.10;99.90;;;;;;5056937;28;20601;-76
2021/01/20 08:45:10;;;;;;;2.10;0.70;;;8.00;99.90;;;;;;5054215;28;20223;-76
2021/01/20 08:47:43;;;;;;;0.80;0.70;;;8.10;99.90;;;;;;5054494;28;20208;-71
2021/01/20 08:50:11;;;;;;;1.47;0.60;;;8.10;99.90;;;;;;5041137;28;20283;-71
2021/01/20 08:52:45;;;;;;;0.97;0.50;;;8.20;99.90;;;;;;5044608;28;20203;-72
2021/01/20 08:55:24;;;;;;;0.83;0.50;;;8.20;99.90;;;;;;5042397;28;20208;-69
2021/01/20 08:58:16;;;;;;;1.17;0.60;;;8.30;99.90;;;;;;5041958;28;20201;-70
2021/01/20 09:00:43;;;;;;;1.93;0.67;;;8.30;99.90;;;;;;5046162;28;20610;-75
2021/01/20 09:03:14;;;;;;;2.33;0.50;;;8.30;99.90;;;;;;5042894;28;20199;-75
2021/01/20 09:05:40;;;;;;;0.90;0.60;;;8.30;99.90;;;;;;5046566;28;20207;-73
2021/01/20 09:08:07;;;;;;;0.63;0.40;;;8.40;99.90;;;;;;5040966;28;20259;-70
2021/01/20 09:10:33;;;;;;;0.70;0.53;;;8.40;99.90;;;;;;5043559;28;20224;-72
2021/01/20 09:13:00;;;;;;;0.73;0.50;;;8.40;99.90;;;;;;5044217;28;20207;-73
2021/01/20 09:15:27;;;;;;;0.80;0.50;;;8.50;99.90;;;;;;5044492;28;20214;-72
2021/01/20 09:17:53;;;;;;;2.53;0.97;;;8.50;99.90;;;;;;5043083;28;20205;-73
2021/01/20 09:20:20;;;;;;;0.97;0.50;;;8.70;99.90;;;;;;5042404;28;20298;-72
2021/01/20 09:22:46;;;;;;;1.23;0.67;;;8.70;99.90;;;;;;5043439;28;20567;-74
2021/01/20 09:25:13;;;;;;;1.63;0.60;;;8.70;99.90;;;;;;5041066;28;20212;-73
2021/01/20 09:27:39;;;;;;;0.67;0.50;;;8.70;99.90;;;;;;5040364;28;20208;-74
2021/01/20 09:30:07;;;;;;;2.20;0.63;;;8.80;99.90;;;;;;5048635;28;20228;-74
2021/01/20 09:32:36;;;;;;;1.40;0.67;;;8.80;99.90;;;;;;5046173;28;20710;-72
2021/01/20 09:35:09;;;;;;;3.30;0.80;;;8.80;99.90;;;;;;5051859;28;20208;-73
2021/01/20 09:37:36;;;;;;;1.20;0.60;;;8.90;99.90;;;;;;5051379;28;20208;-73
2021/01/20 09:40:05;;;;;;;1.60;0.50;;;9.00;99.90;;;;;;5050534;28;20232;-75
2021/01/20 09:42:31;;;;;;;1.50;0.53;;;9.00;99.90;;;;;;5052067;28;20207;-74
2021/01/20 09:44:58;;;;;;;1.53;0.80;;;9.00;99.90;;;;;;5048532;28;20208;-75
2021/01/20 09:47:24;;;;;;;1.40;0.50;;;9.00;99.90;;;;;;5031309;28;20295;-71
2021/01/20 09:49:51;;;;;;;1.07;0.63;;;9.00;99.90;;;;;;5045576;28;20231;-74
2021/01/20 09:52:18;;;;;;;2.00;0.60;;;9.10;99.90;;;;;;5051784;28;20208;-74
2021/01/20 09:54:44;;;;;;;0.73;0.50;;;9.10;99.90;;;;;;5050970;28;20212;-72
2021/01/20 09:57:10;;;;;;;1.40;0.53;;;9.10;99.90;;;;;;5051551;28;20203;-74
2021/01/20 09:59:37;;;;;;;1.03;0.57;;;9.10;99.90;;;;;;5051005;28;20232;-71
2021/01/20 10:02:03;;;;;;;1.30;0.40;;;9.10;99.90;;;;;;5051167;28;20212;-72
2021/01/20 10:04:29;;;;;;;1.13;0.60;;;9.20;99.90;;;;;;5050774;28;20207;-73
2021/01/20 10:06:58;;;;;;;1.17;0.60;;;9.10;99.90;;;;;;5050852;28;20678;-75
2021/01/20 10:09:25;;;;;;;1.43;0.63;;;9.00;99.90;;;;;;5050060;28;20266;-76
2021/01/20 10:11:51;;;;;;;1.03;0.70;;;9.00;99.90;;;;;;5050957;28;20290;-73
2021/01/20 10:14:19;;;;;;;1.17;0.60;;;9.10;99.90;;;;;;5052048;28;20208;-73
2021/01/20 10:16:46;;;;;;;1.00;0.50;;;9.20;99.90;;;;;;5052607;28;20204;-73
2021/01/20 10:19:14;;;;;;;2.50;0.80;;;9.40;99.90;;;;;;5051928;28;20232;-73
2021/01/20 10:21:41;;;;;;;0.77;0.40;;;9.60;99.90;;;;;;5052470;28;20670;-73
2021/01/20 10:24:09;;;;;;;0.90;0.60;;;9.80;99.90;;;;;;5051997;28;20689;-73
2021/01/20 10:26:36;;;;;;;0.93;0.60;;;9.90;99.90;;;;;;5051981;28;20208;-73
2021/01/20 10:29:02;;;;;;;1.33;0.67;;;10.00;99.90;;;;;;5052482;28;20228;-73
2021/01/20 10:31:30;;;;;;;1.57;0.60;;;10.00;99.90;;;;;;5052008;28;20250;-72
2021/01/20 10:33:56;;;;;;;0.87;0.60;;;10.10;99.90;;;;;;5052677;28;20204;-73
2021/01/20 10:36:22;;;;;;;1.40;0.53;;;10.00;99.90;;;;;;5052367;28;20666;-73
2021/01/20 10:38:48;;;;;;;1.40;0.60;;;9.90;99.90;;;;;;5051700;28;20208;-74
2021/01/20 10:41:18;;;;;;;1.03;0.60;;;9.90;99.90;;;;;;5052249;28;20292;-73
2021/01/20 10:43:45;;;;;;;0.90;0.60;;;9.90;99.90;;;;;;5052131;28;20674;-73
2021/01/20 10:46:11;;;;;;;0.60;0.40;;;10.00;99.90;;;;;;5051937;28;20662;-73
2021/01/20 10:48:38;;;;;;;2.50;0.90;;;10.10;99.90;;;;;;5052450;28;20211;-72
2021/01/20 10:51:04;;;;;;;1.03;0.70;;;10.10;99.90;;;;;;5051908;28;20666;-73
2021/01/20 10:53:30;;;;;;;1.20;0.50;;;10.20;99.90;;;;;;5052090;28;20215;-73
2021/01/20 10:55:56;;;;;;;2.43;0.80;;;10.20;99.90;;;;;;5052261;28;20235;-72
2021/01/20 10:58:24;;;;;;;1.70;0.70;;;10.30;99.90;;;;;;5052088;28;20578;-72
2021/01/20 11:00:50;;;;;;;3.80;0.93;;;10.40;99.90;;;;;;5051577;28;20297;-72
2021/01/20 11:03:16;;;;;;;2.73;0.50;;;10.40;99.90;;;;;;5048434;28;20216;-72
2021/01/20 11:05:43;;;;;;;1.27;0.70;;;10.50;99.90;;;;;;5051998;28;20200;-73
2021/01/20 11:08:09;;;;;;;1.93;1.07;;;10.50;99.90;;;;;;5052563;28;20239;-73
2021/01/20 11:10:36;;;;;;;1.27;0.57;;;10.60;99.90;;;;;;5051936;28;20232;-73
2021/01/20 11:13:07;;;;;;;0.80;0.57;;;10.70;99.90;;;;;;5051583;28;20208;-72
2021/01/20 11:15:35;;;;;;;1.17;0.60;;;10.70;99.90;;;;;;5051813;28;20204;-73
2021/01/20 11:18:02;;;;;;;1.17;0.90;;;10.70;99.90;;;;;;5052069;28;20246;-73
2021/01/20 11:20:28;;;;;;;1.23;0.53;;;10.80;99.90;;;;;;5051714;28;20236;-73
2021/01/20 11:22:55;;;;;;;1.63;0.60;;;10.70;99.90;;;;;;5051844;28;20212;-73
2021/01/20 11:25:21;;;;;;;1.63;0.57;;;10.80;99.90;;;;;;5051588;28;20227;-73
2021/01/20 11:27:47;;;;;;;1.17;0.60;;;10.90;99.90;;;;;;5051730;28;20200;-71
2021/01/20 11:30:14;;;;;;;2.83;0.50;;;10.80;99.90;;;;;;5051695;28;20611;-71
2021/01/20 11:32:41;;;;;;;1.50;0.60;;;10.70;99.90;;;;;;5054162;28;20207;-72
2021/01/20 11:35:08;;;;;;;0.80;0.50;;;10.60;99.90;;;;;;5055692;28;20219;-72
2021/01/20 11:37:35;;;;;;;1.13;0.73;;;10.60;99.90;;;;;;5055278;28;20204;-72
2021/01/20 11:40:03;;;;;;;1.63;0.60;;;10.60;99.90;;;;;;5054871;28;20241;-72
2021/01/20 11:42:29;;;;;;;3.57;0.70;;;10.60;99.90;;;;;;5055045;28;20745;-72
2021/01/20 11:44:56;;;;;;;0.70;0.60;;;10.70;99.90;;;;;;5055213;28;20215;-72
2021/01/20 11:47:22;;;;;;;2.80;0.70;;;10.80;99.90;;;;;;5055419;28;20204;-72
2021/01/20 11:49:50;;;;;;;1.10;0.60;;;10.90;99.90;;;;;;5055172;28;20319;-71
2021/01/20 11:52:17;;;;;;;1.70;0.80;;;10.90;99.90;;;;;;5054697;28;20216;-79
2021/01/20 11:54:43;;;;;;;1.27;0.60;;;10.80;99.90;;;;;;5054650;28;20290;-71
2021/01/20 11:57:09;;;;;;;3.63;0.80;;;10.70;99.90;;;;;;5054992;28;20223;-72
2021/01/20 11:59:35;;;;;;;1.63;0.50;;;10.60;99.90;;;;;;5054553;28;20246;-72
2021/01/20 12:02:02;;;;;;;1.00;0.60;;;10.60;99.90;;;;;;5045908;28;20211;-71
2021/01/20 12:04:28;;;;;;;0.80;0.60;;;10.70;99.90;;;;;;5043853;28;20562;-73
2021/01/20 12:06:55;;;;;;;2.30;0.53;;;10.60;99.90;;;;;;5049903;28;20687;-71
2021/01/20 12:09:21;;;;;;;2.33;0.77;;;10.50;99.90;;;;;;5046983;28;20224;-71
2021/01/20 12:11:48;;;;;;;1.33;0.67;;;10.40;99.90;;;;;;5049312;28;20251;-71
2021/01/20 12:14:15;;;;;;;2.30;0.73;;;10.30;99.90;;;;;;5040697;28;20690;-71
2021/01/20 12:16:41;;;;;;;1.17;0.77;;;10.30;99.90;;;;;;5045278;28;20262;-71
2021/01/20 12:19:08;;;;;;;1.50;0.67;;;10.40;99.90;;;;;;5045551;28;20591;-71
2021/01/20 12:21:34;;;;;;;1.30;0.60;;;10.50;99.90;;;;;;5042998;28;20197;-72
2021/01/20 12:24:01;;;;;;;1.30;0.57;;;10.50;99.90;;;;;;5045312;28;20230;-71
2021/01/20 12:26:28;;;;;;;0.87;0.70;;;10.60;99.90;;;;;;5045218;28;20208;-72
2021/01/20 12:28:54;;;;;;;0.87;0.60;;;10.70;99.90;;;;;;5040672;28;20205;-72
2021/01/20 12:31:21;;;;;;;12.40;0.80;;;10.80;99.90;;;;;;5047461;28;20670;-71
2021/01/20 12:33:47;;;;;;;1.90;0.70;;;10.80;99.90;;;;;;5041577;28;20668;-72
2021/01/20 12:36:14;;;;;;;0.90;0.50;;;10.90;99.90;;;;;;5044422;28;20291;-72
2021/01/20 12:38:40;;;;;;;2.00;0.60;;;11.00;99.90;;;;;;5044554;28;20220;-75
2021/01/20 12:41:07;;;;;;;1.13;0.60;;;11.10;99.90;;;;;;5043453;28;20233;-73
2021/01/20 12:43:33;;;;;;;1.40;0.73;;;11.10;99.90;;;;;;5038672;28;20675;-72
2021/01/20 12:45:59;;;;;;;3.73;0.70;;;11.20;99.90;;;;;;5044003;28;20208;-73
2021/01/20 12:48:26;;;;;;;2.77;0.80;;;11.20;99.90;;;;;;5049620;28;20207;-72
2021/01/20 12:50:52;;;;;;;2.77;0.87;;;11.30;99.90;;;;;;5038139;28;20228;-72
2021/01/20 12:53:18;;;;;;;1.07;0.70;;;11.20;99.90;;;;;;5044249;28;20205;-72
2021/01/20 12:55:44;;;;;;;2.20;1.10;;;11.20;99.90;;;;;;5043529;28;20211;-73
2021/01/20 12:58:11;;;;;;;1.10;0.50;;;11.10;99.90;;;;;;5041916;28;20205;-72
2021/01/20 13:00:38;;;;;;;2.10;0.87;;;11.00;99.90;;;;;;5047902;28;20243;-72
2021/01/20 13:03:05;;;;;;;1.57;0.90;;;10.90;99.90;;;;;;5040008;28;20205;-73
2021/01/20 13:05:31;;;;;;;2.23;0.83;;;10.90;99.90;;;;;;5045724;28;20555;-72
2021/01/20 13:07:57;;;;;;;1.90;0.60;;;11.00;99.90;;;;;;5043841;28;20208;-72
2021/01/20 13:10:23;;;;;;;1.97;1.00;;;11.10;99.90;;;;;;5046423;28;20228;-72
2021/01/20 13:12:49;;;;;;;1.67;0.80;;;11.10;99.90;;;;;;5040832;28;20204;-72
2021/01/20 13:15:17;;;;;;;1.57;0.77;;;11.10;99.90;;;;;;5040598;28;20238;-72
2021/01/20 13:17:43;;;;;;;2.17;0.70;;;11.10;99.90;;;;;;5041528;28;20208;-73
2021/01/20 13:20:10;;;;;;;0.80;0.50;;;11.20;99.90;;;;;;5036833;28;20236;-73
2021/01/20 13:22:37;;;;;;;2.03;0.80;;;11.10;99.90;;;;;;5032183;28;20626;-75
2021/01/20 13:25:03;;;;;;;1.20;0.70;;;11.10;99.90;;;;;;5033525;28;20667;-75
2021/01/20 13:27:32;;;;;;;1.63;0.83;;;11.20;99.90;;;;;;5033690;28;20305;-74
2021/01/20 13:29:59;;;;;;;1.30;0.50;;;11.30;99.90;;;;;;5032970;28;20220;-74
2021/01/20 13:32:26;;;;;;;2.07;0.67;;;11.30;99.90;;;;;;5033522;28;20607;-75
2021/01/20 13:34:52;;;;;;;0.97;0.60;;;11.30;99.90;;;;;;5032827;28;20201;-70
2021/01/20 13:37:18;;;;;;;1.23;0.57;;;11.30;99.90;;;;;;5049630;28;20200;-73
2021/01/20 13:39:44;;;;;;;0.53;0.40;;;11.30;99.90;;;;;;5052900;28;20240;-72
2021/01/20 13:42:10;;;;;;;1.47;0.60;;;11.30;99.90;;;;;;5053281;28;20586;-73
2021/01/20 13:44:38;;;;;;;2.10;0.80;;;11.30;99.90;;;;;;5038315;28;20217;-70
2021/01/20 13:47:05;;;;;;;1.10;0.73;;;11.30;99.90;;;;;;5047579;28;20558;-76
2021/01/20 13:49:33;;;;;;;1.50;0.70;;;11.20;99.90;;;;;;5052823;28;20235;-80
2021/01/20 13:52:00;;;;;;;1.73;0.57;;;11.20;99.90;;;;;;5053051;28;20223;-80
2021/01/20 13:54:26;;;;;;;2.07;0.70;;;11.20;99.90;;;;;;5051854;28;20208;-72
2021/01/20 13:56:52;;;;;;;1.70;0.60;;;11.20;99.90;;;;;;5052597;28;20208;-79
2021/01/20 13:59:19;;;;;;;1.37;0.70;;;11.20;99.90;;;;;;5052508;28;20220;-77
2021/01/20 14:01:45;;;;;;;0.83;0.73;;;11.20;99.90;;;;;;5053707;28;20659;-73
2021/01/20 14:04:11;;;;;;;1.27;0.50;;;11.30;99.90;;;;;;5053098;28;20303;-81
2021/01/20 14:06:38;;;;;;;1.30;0.60;;;11.40;99.90;;;;;;5052313;28;20242;-71
2021/01/20 14:09:05;;;;;;;0.97;0.60;;;11.40;99.90;;;;;;5053079;28;20223;-80
2021/01/20 14:11:31;;;;;;;0.97;0.50;;;11.30;99.90;;;;;;5051859;28;20208;-71
2021/01/20 14:13:57;;;;;;;1.03;0.57;;;11.10;99.90;;;;;;5052994;28;20254;-79
2021/01/20 14:16:23;;;;;;;2.43;0.60;;;11.10;99.90;;;;;;5053663;28;20204;-80
2021/01/20 14:18:50;;;;;;;0.73;0.50;;;11.20;99.90;;;;;;5052992;28;20200;-80
2021/01/20 14:21:16;;;;;;;1.93;0.70;;;11.20;99.90;;;;;;5053022;28;20261;-71
2021/01/20 14:23:43;;;;;;;0.90;0.43;;;11.10;99.90;;;;;;5052590;28;20211;-76
2021/01/20 14:26:09;;;;;;;1.00;0.60;;;11.20;99.90;;;;;;5052755;28;20200;-71
2021/01/20 14:28:35;;;;;;;1.47;0.70;;;11.20;99.90;;;;;;5052928;28;20212;-71
2021/01/20 14:31:02;;;;;;;2.20;0.50;;;11.20;99.90;;;;;;5052692;28;20266;-71
2021/01/20 14:33:28;;;;;;;2.73;0.50;;;11.20;99.90;;;;;;5052944;28;20211;-71
2021/01/20 14:35:55;;;;;;;1.83;0.80;;;11.10;99.90;;;;;;5052773;28;20215;-71
2021/01/20 14:38:21;;;;;;;1.73;0.90;;;11.10;99.90;;;;;;5052780;28;20200;-80
2021/01/20 14:40:48;;;;;;;1.77;0.80;;;11.10;99.90;;;;;;5052629;28;20231;-71
2021/01/20 14:43:14;;;;;;;1.37;0.60;;;11.20;99.90;;;;;;5052649;28;20204;-81
2021/01/20 14:45:40;;;;;;;2.33;0.90;;;11.20;99.90;;;;;;5052413;28;20231;-77
2021/01/20 14:48:07;;;;;;;1.37;0.70;;;11.20;99.90;;;;;;5052730;28;20204;-71
2021/01/20 14:50:33;;;;;;;1.07;0.60;;;11.10;99.90;;;;;;5052570;28;20224;-79
2021/01/20 14:52:59;;;;;;;2.23;0.90;;;11.10;99.90;;;;;;5052818;28;20211;-72
2021/01/20 14:55:26;;;;;;;1.60;0.70;;;11.10;99.90;;;;;;5052775;28;20262;-81
2021/01/20 14:57:53;;;;;;;1.17;0.50;;;11.10;99.90;;;;;;5052680;28;20254;-74
2021/01/20 15:00:20;;;;;;;1.57;0.60;;;11.10;99.90;;;;;;5052736;28;20243;-80
2021/01/20 15:02:46;;;;;;;2.40;0.90;;;11.00;99.90;;;;;;5052549;28;20208;-79
2021/01/20 15:05:13;;;;;;;1.07;0.63;;;11.00;99.90;;;;;;5053223;28;20231;-81
2021/01/20 15:07:39;;;;;;;3.07;0.70;;;11.00;99.90;;;;;;5056455;28;20208;-72
2021/01/20 15:10:07;;;;;;;1.70;0.77;;;11.00;99.90;;;;;;5056062;28;20293;-72
2021/01/20 15:12:33;;;;;;;3.63;0.80;;;11.00;99.90;;;;;;5056567;28;20204;-75
2021/01/20 15:15:00;;;;;;;1.67;0.80;;;11.00;99.90;;;;;;5056378;28;20219;-71
2021/01/20 15:17:27;;;;;;;1.23;0.80;;;10.90;99.90;;;;;;5056378;28;20212;-75
2021/01/20 15:19:53;;;;;;;2.27;0.80;;;10.90;99.90;;;;;;5056093;28;20285;-71
2021/01/20 15:22:19;;;;;;;2.97;1.00;;;10.90;99.90;;;;;;5056107;28;20215;-71
2021/01/20 15:24:46;;;;;;;2.10;0.80;;;10.90;99.90;;;;;;5055952;28;20207;-70
2021/01/20 15:27:12;;;;;;;1.47;0.80;;;10.80;99.90;;;;;;5055844;28;20574;-72
2021/01/20 15:29:38;;;;;;;2.90;0.90;;;10.80;99.90;;;;;;5056115;28;20228;-78
2021/01/20 15:32:06;;;;;;;1.53;0.93;;;10.80;99.90;;;;;;5056100;28;20605;-77
2021/01/20 15:34:32;;;;;;;1.40;0.70;;;10.80;99.90;;;;;;5056106;28;20208;-80
2021/01/20 15:36:58;;;;;;;2.77;0.83;;;10.80;99.90;;;;;;5055795;28;20234;-76
2021/01/20 15:39:24;;;;;;;3.30;0.83;;;10.80;99.90;;;;;;5055803;28;20232;-73
2021/01/20 15:41:51;;;;;;;2.07;0.87;;;10.70;99.90;;;;;;5055976;28;20228;-74
2021/01/20 15:44:17;;;;;;;1.80;0.80;;;10.70;99.90;;;;;;5055683;28;20208;-71
2021/01/20 15:46:43;;;;;;;2.43;0.97;;;10.70;99.90;;;;;;5055718;28;20200;-77
2021/01/20 15:49:10;;;;;;;1.27;0.73;;;10.60;99.90;;;;;;5055372;28;20707;-73
2021/01/20 15:51:36;;;;;;;1.17;0.67;;;10.60;99.90;;;;;;5055369;28;20670;-73
2021/01/20 15:54:03;;;;;;;1.57;0.77;;;10.60;99.90;;;;;;5055600;28;20684;-71
2021/01/20 15:56:31;;;;;;;2.80;0.90;;;10.60;99.90;;;;;;5055548;28;20666;-77
2021/01/20 15:58:57;;;;;;;1.30;0.70;;;10.60;99.90;;;;;;5055070;28;20610;-71
2021/01/20 16:01:23;;;;;;;1.97;1.00;;;10.60;99.90;;;;;;5055422;28;20238;-77
2021/01/20 16:03:50;;;;;;;1.20;0.77;;;10.60;99.90;;;;;;5055465;28;20214;-71
2021/01/20 16:06:22;;;;;;;1.53;0.80;;;10.50;99.90;;;;;;5055012;28;20204;-70
2021/01/20 16:08:48;;;;;;;2.07;1.00;;;10.50;99.90;;;;;;5046036;28;20212;-71
2021/01/20 16:11:14;;;;;;;2.53;0.70;;;10.50;99.90;;;;;;5039952;28;20209;-72
2021/01/20 16:13:40;;;;;;;1.90;0.80;;;10.50;99.90;;;;;;5050382;28;20208;-74
2021/01/20 16:16:07;;;;;;;1.23;0.50;;;10.50;99.90;;;;;;5046758;28;20209;-71
2021/01/20 16:18:33;;;;;;;1.07;0.70;;;10.50;99.90;;;;;;5049274;28;20204;-78
2021/01/20 16:20:59;;;;;;;3.33;1.10;;;10.60;99.90;;;;;;5040208;28;20244;-78
2021/01/20 16:23:26;;;;;;;1.30;0.83;;;10.50;99.90;;;;;;5043133;28;20208;-77
2021/01/20 16:25:52;;;;;;;1.23;0.77;;;10.40;99.90;;;;;;5049909;28;20212;-78
2021/01/20 16:28:19;;;;;;;1.30;0.70;;;10.50;99.90;;;;;;5051958;28;20196;-70
2021/01/20 16:30:46;;;;;;;2.40;0.80;;;10.50;99.90;;;;;;5046061;28;20695;-71
2021/01/20 16:33:13;;;;;;;1.17;0.77;;;10.50;99.90;;;;;;5041837;28;20209;-70
2021/01/20 16:35:39;;;;;;;2.47;0.77;;;10.50;99.90;;;;;;5039484;28;20213;-76
2021/01/20 16:38:06;;;;;;;1.43;0.80;;;10.40;99.90;;;;;;5041548;28;20614;-71
2021/01/20 16:40:33;;;;;;;1.10;0.67;;;10.50;99.90;;;;;;5039111;28;20231;-77
2021/01/20 16:43:00;;;;;;;1.13;0.70;;;10.50;99.90;;;;;;5041772;28;20706;-71
2021/01/20 16:45:26;;;;;;;2.33;0.97;;;10.40;99.90;;;;;;5043387;28;20201;-71
2021/01/20 16:47:53;;;;;;;1.93;0.77;;;10.50;99.90;;;;;;5038962;28;20206;-74
2021/01/20 16:50:19;;;;;;;1.03;0.60;;;10.40;99.90;;;;;;5037145;28;20590;-77
2021/01/20 16:52:46;;;;;;;1.50;0.93;;;10.40;99.90;;;;;;5041473;28;20208;-70
2021/01/20 16:55:12;;;;;;;1.27;0.70;;;10.40;99.90;;;;;;5039245;28;20205;-69
2021/01/20 16:57:39;;;;;;;3.43;0.93;;;10.50;99.90;;;;;;5040437;28;20204;-70
2021/01/20 17:00:07;;;;;;;4.20;0.73;;;10.50;99.90;;;;;;5040050;28;20228;-70
2021/01/20 17:02:33;;;;;;;1.93;0.70;;;10.50;99.90;;;;;;5038793;28;20686;-74
2021/01/20 17:04:59;;;;;;;3.43;0.90;;;10.50;99.90;;;;;;5039263;28;20208;-75
2021/01/20 17:07:25;;;;;;;1.93;0.93;;;10.50;99.90;;;;;;5037389;28;20219;-73
2021/01/20 17:09:52;;;;;;;1.93;1.03;;;10.40;99.90;;;;;;5040515;28;20227;-70
2021/01/20 17:12:18;;;;;;;2.17;0.80;;;10.30;99.90;;;;;;5036716;28;20575;-74
2021/01/20 17:14:45;;;;;;;2.30;1.10;;;10.30;99.90;;;;;;5040171;28;20201;-70
2021/01/20 17:17:11;;;;;;;2.57;1.10;;;10.30;99.90;;;;;;5040082;28;22196;-77
2021/01/20 17:19:37;;;;;;;2.83;0.90;;;10.30;99.90;;;;;;5037440;28;20225;-70
2021/01/20 17:22:04;;;;;;;1.87;0.93;;;10.30;99.90;;;;;;5032374;28;20541;-79
2021/01/20 17:24:30;;;;;;;1.10;0.87;;;10.30;99.90;;;;;;5032145;28;20204;-78
2021/01/20 17:26:56;;;;;;;1.67;0.67;;;10.20;99.90;;;;;;5034064;28;20631;-69
2021/01/20 17:29:23;;;;;;;2.73;1.10;;;10.20;99.90;;;;;;5032891;28;20228;-79
2021/01/20 17:31:50;;;;;;;2.17;1.10;;;10.20;99.90;;;;;;5033758;28;20204;-70
2021/01/20 17:34:17;;;;;;;2.70;0.90;;;10.20;99.90;;;;;;5033743;28;20726;-77
2021/01/20 17:36:45;;;;;;;1.90;1.00;;;10.20;99.90;;;;;;5033588;28;20208;-76
2021/01/20 17:39:11;;;;;;;0.97;0.60;;;10.20;99.90;;;;;;5033067;28;20224;-69
2021/01/20 17:41:37;;;;;;;3.17;0.90;;;10.30;99.90;;;;;;5033570;28;20236;-70
2021/01/20 17:44:04;;;;;;;1.43;1.10;;;10.30;99.90;;;;;;5033541;28;20205;-74
2021/01/20 17:46:30;;;;;;;2.03;0.87;;;10.40;99.90;;;;;;5033436;28;20213;-73
2021/01/20 17:48:57;;;;;;;2.13;0.83;;;10.40;99.90;;;;;;5033509;28;20567;-78
2021/01/20 17:51:24;;;;;;;1.27;0.80;;;10.40;99.90;;;;;;5033492;28;20537;-70
2021/01/20 17:53:50;;;;;;;1.00;0.70;;;10.40;99.90;;;;;;5033470;28;20200;-77
2021/01/20 17:56:17;;;;;;;1.60;1.00;;;10.40;99.90;;;;;;5033261;28;20216;-75
2021/01/20 17:58:43;;;;;;;0.97;0.63;;;10.40;99.90;;;;;;5033344;28;21130;-78
2021/01/20 18:01:09;;;;;;;1.07;0.70;;;10.40;99.90;;;;;;5033011;28;20979;-69
2021/01/20 18:03:35;;;;;;;1.97;0.80;;;10.50;99.90;;;;;;5033190;28;20232;-70
2021/01/20 18:06:04;;;;;;;1.27;0.70;;;10.50;99.90;;;;;;5033464;28;20205;-75
2021/01/20 18:08:30;;;;;;;1.33;0.80;;;10.60;99.90;;;;;;5032837;28;20695;-74
2021/01/20 18:10:56;;;;;;;2.13;0.80;;;10.60;99.90;;;;;;5033037;28;20264;-77
2021/01/20 18:13:23;;;;;;;1.00;0.80;;;10.60;99.90;;;;;;5033085;28;20544;-74
2021/01/20 18:15:49;;;;;;;0.70;0.60;;;10.60;99.90;;;;;;5033180;28;20583;-75
2021/01/20 18:18:15;;;;;;;1.43;0.73;;;10.60;99.90;;;;;;5032991;28;20274;-70
2021/01/20 18:20:41;;;;;;;2.97;0.80;;;10.60;99.90;;;;;;5033039;28;20251;-78
2021/01/20 18:23:09;;;;;;;1.83;0.87;;;10.70;99.90;;;;;;5033038;28;20217;-69
2021/01/20 18:25:35;;;;;;;2.80;1.00;;;10.70;99.90;;;;;;5032929;28;20204;-71
2021/01/20 18:28:01;;;;;;;1.93;1.10;;;10.80;99.90;;;;;;5033064;28;20208;-76
2021/01/20 18:30:28;;;;;;;2.80;1.13;;;10.80;99.90;;;;;;5032758;28;20715;-70
2021/01/20 18:32:54;;;;;;;1.13;0.67;;;10.90;99.90;;;;;;5032880;28;20204;-68
2021/01/20 18:35:21;;;;;;;1.40;0.80;;;11.00;99.90;;;;;;5032308;28;20659;-68
2021/01/20 18:37:47;;;;;;;1.90;1.00;;;11.00;99.90;;;;;;5042283;28;20713;-69
2021/01/20 18:40:14;;;;;;;2.63;1.10;;;11.00;99.90;;;;;;5044443;28;20646;-75
2021/01/20 18:42:41;;;;;;;2.13;1.10;;;11.10;99.90;;;;;;5046144;28;20227;-74
2021/01/20 18:45:08;;;;;;;1.83;1.10;;;11.10;99.90;;;;;;5047554;28;20204;-69
2021/01/20 18:47:35;;;;;;;3.93;0.83;;;11.10;99.90;;;;;;5048358;28;20214;-76
2021/01/20 18:50:01;;;;;;;1.40;0.70;;;11.10;99.90;;;;;;5049382;28;20251;-70
2021/01/20 18:52:27;;;;;;;2.80;0.80;;;11.20;99.90;;;;;;5048119;28;20219;-69
2021/01/20 18:54:53;;;;;;;2.13;0.90;;;11.20;99.90;;;;;;5049279;28;20250;-75
2021/01/20 18:57:20;;;;;;;2.40;0.87;;;11.30;99.90;;;;;;5046260;28;20208;-69
2021/01/20 18:59:47;;;;;;;2.07;0.90;;;11.30;99.90;;;;;;5046989;28;20232;-69
2021/01/20 19:02:13;;;;;;;5.30;0.83;;;11.30;99.90;;;;;;5046607;28;20270;-77
2021/01/20 19:04:39;;;;;;;1.17;0.80;;;11.40;99.90;;;;;;5051526;28;20725;-72
2021/01/20 19:07:05;;;;;;;1.80;0.87;;;11.40;99.90;;;;;;5044733;28;20204;-71
2021/01/20 19:09:32;;;;;;;1.47;0.90;;;11.50;99.90;;;;;;5046590;28;20583;-68
2021/01/20 19:11:58;;;;;;;1.70;0.70;;;11.40;99.90;;;;;;5041080;28;20295;-73
2021/01/20 19:14:25;;;;;;;1.37;0.70;;;11.40;99.90;;;;;;5047698;28;20215;-69
2021/01/20 19:16:52;;;;;;;2.23;1.00;;;11.40;99.90;;;;;;5047559;28;20675;-71
2021/01/20 19:19:18;;;;;;;3.20;1.73;;;11.40;99.90;;;;;;5043827;28;20232;-71
2021/01/20 19:21:44;;;;;;;2.33;1.07;;;11.40;99.90;;;;;;5040311;28;20236;-76
2021/01/20 19:24:11;;;;;;;2.10;0.80;;;11.40;99.90;;;;;;5049777;28;20631;-69
2021/01/20 19:26:39;;;;;;;1.90;0.80;;;11.30;99.90;;;;;;5047804;28;20204;-70
2021/01/20 19:29:05;;;;;;;1.43;0.80;;;11.20;99.90;;;;;;5050424;28;20718;-70
2021/01/20 19:31:32;;;;;;;2.57;0.90;;;11.10;99.90;;;;;;5042346;28;20655;-70
2021/01/20 19:33:58;;;;;;;3.40;1.30;;;11.00;99.90;;;;;;5055600;28;20675;-76
2021/01/20 19:36:24;;;;;;;2.30;1.20;;;11.00;99.90;;;;;;5055104;28;20204;-70
2021/01/20 19:38:51;;;;;;;2.13;0.90;;;10.90;99.90;;;;;;5055406;28;20200;-70
2021/01/20 19:41:18;;;;;;;1.53;0.80;;;10.90;99.90;;;;;;5055713;28;20239;-70
2021/01/20 19:43:44;;;;;;;1.23;0.90;;;10.80;99.90;;;;;;5055976;28;20214;-76
2021/01/20 19:46:11;;;;;;;1.87;0.80;;;10.80;99.90;;;;;;5055981;28;20215;-80
2021/01/20 19:48:38;;;;;;;2.37;1.00;;;10.70;99.90;;;;;;5055830;28;20204;-74
2021/01/20 19:51:05;;;;;;;3.20;0.80;;;10.60;99.90;;;;;;5055592;28;20207;-70
2021/01/20 19:53:31;;;;;;;2.60;0.97;;;10.60;99.90;;;;;;5054168;28;20689;-80
2021/01/20 19:55:57;;;;;;;2.87;1.00;;;10.60;99.90;;;;;;5055465;28;20274;-70
2021/01/20 19:58:23;;;;;;;4.27;1.50;;;10.50;99.90;;;;;;5055451;28;20231;-70
2021/01/20 20:00:51;;;;;;;2.20;1.40;;;10.60;99.90;;;;;;5055526;28;20236;-76
2021/01/20 20:03:17;;;;;;;0.63;0.43;;;10.50;99.90;;;;;;5055581;28;20216;-74
2021/01/20 20:05:44;;;;;;;1.83;0.83;;;10.60;99.90;;;;;;5055568;28;20208;-80
2021/01/20 20:08:11;;;;;;;2.13;1.43;;;10.60;99.90;;;;;;5052572;28;20254;-70
2021/01/20 20:10:37;;;;;;;5.30;1.40;;;10.60;99.90;;;;;;5054371;28;20235;-78